Time;durP1;ratioP1;P1;durP2;ratioP2;P2;SDS_P1;SDS_P2;PMS_P1;PMS_P2;Temp;Humidity;BMP_temperature;BMP_pressure;BME280_temperature;BME280_humidity;BME280_pressure;Samples;Min_cycle;Max_cycle;Signal;HPM_P1;HPM_P2
2023/10/10 00:01:05;;;;;;;37.35;27.60;;;17.30;99.90;;;;;;5163084;27;20206;-78
2023/10/10 00:03:36;;;;;;;34.10;29.20;;;17.30;99.90;;;;;;5157907;27;20214;-78
2023/10/10 00:06:08;;;;;;;33.72;27.95;;;17.20;99.90;;;;;;5157241;27;20205;-79
2023/10/10 00:08:40;;;;;;;38.58;28.38;;;17.20;99.90;;;;;;5162136;27;20206;-78
2023/10/10 00:11:09;;;;;;;36.00;28.67;;;17.20;99.90;;;;;;5159701;27;20240;-79
2023/10/10 00:13:42;;;;;;;39.08;29.73;;;17.30;99.90;;;;;;5158145;27;20218;-79
2023/10/10 00:16:12;;;;;;;36.90;28.40;;;17.10;99.90;;;;;;5153691;27;20201;-79
2023/10/10 00:18:43;;;;;;;36.50;27.98;;;17.10;99.90;;;;;;5174423;27;20191;-78
2023/10/10 00:21:12;;;;;;;36.03;27.23;;;17.10;99.90;;;;;;5163950;27;20202;-79
2023/10/10 00:23:42;;;;;;;34.85;27.85;;;17.10;99.90;;;;;;5158768;27;20214;-78
2023/10/10 00:26:13;;;;;;;35.88;28.08;;;17.10;99.90;;;;;;5159248;27;20201;-78
2023/10/10 00:28:45;;;;;;;37.83;28.80;;;17.10;99.90;;;;;;5154393;27;20589;-78
2023/10/10 00:31:17;;;;;;;38.78;29.58;;;17.10;99.90;;;;;;5187953;27;20223;-79
2023/10/10 00:33:46;;;;;;;33.70;26.92;;;17.10;99.90;;;;;;5155312;27;20612;-78
2023/10/10 00:36:20;;;;;;;36.53;28.55;;;17.10;99.90;;;;;;5155492;27;20207;-79
2023/10/10 00:38:57;;;;;;;36.70;28.33;;;17.10;99.90;;;;;;5154078;27;20201;-78
2023/10/10 00:41:26;;;;;;;35.78;28.35;;;17.00;99.90;;;;;;5149633;27;20190;-79
2023/10/10 00:43:57;;;;;;;34.13;28.98;;;17.00;99.90;;;;;;5144565;27;20230;-78
2023/10/10 00:46:28;;;;;;;35.53;29.25;;;17.00;99.90;;;;;;5140605;27;20191;-79
2023/10/10 00:49:00;;;;;;;37.42;29.02;;;17.00;99.90;;;;;;5140514;27;20203;-79
2023/10/10 00:51:30;;;;;;;46.38;31.50;;;17.00;99.90;;;;;;5145267;27;20876;-78
2023/10/10 00:54:12;;;;;;;40.65;30.65;;;16.90;99.90;;;;;;5142712;27;20223;-79
2023/10/10 00:56:44;;;;;;;43.95;29.63;;;16.90;99.90;;;;;;5141848;27;20202;-79
2023/10/10 00:59:11;;;;;;;40.95;30.58;;;16.80;99.90;;;;;;5133117;27;20202;-78
2023/10/10 01:01:40;;;;;;;42.03;29.88;;;16.80;99.90;;;;;;5136661;27;20203;-78
2023/10/10 01:04:09;;;;;;;44.78;31.13;;;16.90;99.90;;;;;;5145938;27;20213;-79
2023/10/10 01:06:39;;;;;;;39.85;30.95;;;16.90;99.90;;;;;;5146990;27;20280;-79
2023/10/10 01:09:20;;;;;;;41.25;30.45;;;16.90;99.90;;;;;;5161427;27;20200;-78
2023/10/10 01:11:49;;;;;;;41.67;31.88;;;16.90;99.90;;;;;;5139056;27;20691;-78
2023/10/10 01:14:18;;;;;;;40.60;30.25;;;16.90;99.90;;;;;;5147236;27;20218;-79
2023/10/10 01:16:54;;;;;;;41.50;31.73;;;16.90;99.90;;;;;;5148329;27;20199;-79
2023/10/10 01:19:22;;;;;;;43.80;32.33;;;16.90;99.90;;;;;;5159432;27;20198;-79
2023/10/10 01:21:57;;;;;;;36.35;28.95;;;16.90;99.90;;;;;;5139064;27;20562;-78
2023/10/10 01:24:25;;;;;;;45.92;32.13;;;17.00;99.90;;;;;;5138934;27;20211;-78
2023/10/10 01:26:54;;;;;;;37.92;28.95;;;16.80;99.90;;;;;;5137793;27;20202;-78
2023/10/10 01:29:25;;;;;;;40.80;30.77;;;16.90;99.90;;;;;;5160321;27;20198;-79
2023/10/10 01:31:53;;;;;;;43.80;31.25;;;16.90;99.90;;;;;;5174484;27;20183;-78
2023/10/10 01:34:39;;;;;;;43.63;30.90;;;16.80;99.90;;;;;;5141251;27;20210;-78
2023/10/10 01:37:14;;;;;;;40.05;30.92;;;16.90;99.90;;;;;;5143227;27;20205;-76
2023/10/10 01:39:51;;;;;;;39.17;30.70;;;16.80;99.90;;;;;;5130506;27;20214;-78
2023/10/10 01:42:24;;;;;;;40.75;31.65;;;16.90;99.90;;;;;;5137510;27;20203;-79
2023/10/10 01:44:51;;;;;;;43.17;31.25;;;16.90;99.90;;;;;;5141235;27;20211;-78
2023/10/10 01:47:26;;;;;;;40.17;29.75;;;16.90;99.90;;;;;;5158397;27;20183;-79
2023/10/10 01:49:58;;;;;;;38.55;29.52;;;17.00;99.90;;;;;;5161942;27;20201;-77
2023/10/10 01:52:27;;;;;;;36.83;27.90;;;17.00;99.90;;;;;;5139409;27;20191;-79
2023/10/10 01:54:54;;;;;;;35.47;28.83;;;17.00;99.90;;;;;;5146212;27;20206;-78
2023/10/10 01:57:22;;;;;;;37.65;28.73;;;16.90;99.90;;;;;;5139654;27;20217;-79
2023/10/10 01:59:51;;;;;;;37.55;28.95;;;16.80;99.90;;;;;;5145560;27;20199;-78
2023/10/10 02:02:23;;;;;;;41.30;31.27;;;16.90;99.90;;;;;;5133015;27;20199;-79
2023/10/10 02:04:53;;;;;;;39.50;31.30;;;16.80;99.90;;;;;;5160205;27;20579;-79
2023/10/10 02:07:23;;;;;;;39.75;30.25;;;16.90;99.90;;;;;;5158197;27;20206;-79
2023/10/10 02:10:03;;;;;;;47.70;36.00;;;17.00;99.90;;;;;;5139987;27;20198;-79
2023/10/10 02:12:33;;;;;;;46.33;34.83;;;16.90;99.90;;;;;;5140313;27;20191;-79
2023/10/10 02:15:01;;;;;;;51.10;37.83;;;17.00;99.90;;;;;;5148550;27;20187;-78
2023/10/10 02:17:30;;;;;;;51.70;38.60;;;16.80;99.90;;;;;;5165713;27;20616;-79
2023/10/10 02:20:17;;;;;;;53.38;38.17;;;16.90;99.90;;;;;;5160029;27;20529;-79
2023/10/10 02:22:49;;;;;;;61.90;43.25;;;16.90;99.90;;;;;;5165302;27;20206;-79
2023/10/10 02:25:39;;;;;;;61.97;45.55;;;16.80;99.90;;;;;;5137243;27;20191;-79
2023/10/10 02:28:20;;;;;;;68.38;49.22;;;16.90;99.90;;;;;;5156761;27;20191;-79
2023/10/10 02:30:52;;;;;;;75.53;53.88;;;16.90;99.90;;;;;;5143650;27;20218;-79
2023/10/10 02:33:31;;;;;;;86.10;60.10;;;16.80;99.90;;;;;;5139892;27;20215;-79
2023/10/10 02:35:59;;;;;;;86.40;61.65;;;16.70;99.90;;;;;;5139327;27;20209;-78
2023/10/10 02:38:34;;;;;;;91.95;68.07;;;16.70;99.90;;;;;;5140478;27;20194;-79
2023/10/10 02:41:22;;;;;;;85.00;62.55;;;16.70;99.90;;;;;;5162542;27;20195;-79
2023/10/10 02:44:04;;;;;;;93.97;67.57;;;16.80;99.90;;;;;;5138671;27;20219;-78
2023/10/10 02:46:37;;;;;;;99.75;75.75;;;16.80;99.90;;;;;;5138518;27;20683;-78
2023/10/10 02:49:22;;;;;;;101.43;75.60;;;16.70;99.90;;;;;;5149579;27;20203;-78
2023/10/10 02:51:51;;;;;;;96.40;75.85;;;16.70;99.90;;;;;;5157701;27;20226;-78
2023/10/10 02:54:27;;;;;;;105.82;78.75;;;16.70;99.90;;;;;;5137806;27;20218;-78
2023/10/10 02:56:57;;;;;;;107.55;75.70;;;16.70;99.90;;;;;;5135652;27;20190;-79
2023/10/10 02:59:31;;;;;;;103.30;75.28;;;16.60;99.90;;;;;;5134452;27;20198;-79
2023/10/10 03:02:04;;;;;;;109.05;81.50;;;16.60;99.90;;;;;;5138759;27;20195;-79
2023/10/10 03:07:27;;;;;;;118.40;79.75;;;16.60;99.90;;;;;;5141183;27;20178;-78
2023/10/10 03:12:51;;;;;;;112.05;76.25;;;16.60;99.90;;;;;;5114607;27;20215;-79
2023/10/10 03:18:15;;;;;;;97.78;66.68;;;16.70;99.90;;;;;;5141241;27;20191;-79
2023/10/10 03:20:51;;;;;;;80.15;55.97;;;16.80;99.90;;;;;;5144780;27;20226;-77
2023/10/10 03:23:33;;;;;;;68.88;51.00;;;16.80;99.90;;;;;;5129636;27;20217;-79
2023/10/10 03:26:04;;;;;;;68.18;48.33;;;16.80;99.90;;;;;;5142009;27;20698;-78
2023/10/10 03:28:41;;;;;;;66.13;44.47;;;16.80;99.90;;;;;;5141408;27;20187;-79
2023/10/10 03:31:22;;;;;;;63.08;46.00;;;16.80;99.90;;;;;;5137426;27;20222;-79
2023/10/10 03:34:11;;;;;;;64.28;44.67;;;16.80;99.90;;;;;;5142000;27;20217;-79
2023/10/10 03:36:44;;;;;;;63.28;44.13;;;16.80;99.90;;;;;;5142828;27;20198;-79
2023/10/10 03:39:25;;;;;;;63.78;43.70;;;16.80;99.90;;;;;;5138537;27;20220;-78
2023/10/10 05:24:43;;;;;;;74.45;42.00;;;16.30;99.90;;;;;;5134063;27;20203;-79
2023/10/10 05:27:22;;;;;;;73.72;41.63;;;16.30;99.90;;;;;;5149935;27;20203;-78
2023/10/10 05:30:05;;;;;;;65.50;38.85;;;16.30;99.90;;;;;;5151814;27;20206;-78
2023/10/10 05:32:32;;;;;;;64.35;37.78;;;16.40;99.90;;;;;;5138831;27;20218;-79
2023/10/10 05:35:01;;;;;;;61.45;37.90;;;16.40;99.90;;;;;;5144246;27;20561;-79
2023/10/10 05:37:28;;;;;;;71.53;38.50;;;16.40;99.90;;;;;;5138486;27;20210;-80
2023/10/10 05:39:58;;;;;;;70.05;39.25;;;16.40;99.90;;;;;;5135852;27;20210;-79
2023/10/10 05:42:34;;;;;;;69.40;38.33;;;16.30;99.90;;;;;;5139472;27;20200;-80
2023/10/10 05:45:08;;;;;;;67.53;39.15;;;16.30;99.90;;;;;;5140257;27;20213;-78
2023/10/10 05:47:42;;;;;;;74.60;40.58;;;16.30;99.90;;;;;;5155230;27;20190;-79
2023/10/10 05:50:18;;;;;;;72.65;41.75;;;16.30;99.90;;;;;;5140369;27;20202;-79
2023/10/10 05:52:49;;;;;;;73.53;40.13;;;16.20;99.90;;;;;;5128983;27;20217;-79
2023/10/10 05:55:19;;;;;;;75.35;42.28;;;16.20;99.90;;;;;;5130560;27;20199;-79
2023/10/10 05:57:47;;;;;;;73.72;43.13;;;16.20;99.90;;;;;;5135967;27;20211;-78
2023/10/10 06:00:36;;;;;;;68.30;41.90;;;16.20;99.90;;;;;;5133021;27;20207;-79
2023/10/10 06:03:05;;;;;;;68.93;41.35;;;16.30;99.90;;;;;;5135001;27;20219;-79
2023/10/10 06:05:34;;;;;;;74.45;41.85;;;16.20;99.90;;;;;;5150702;27;20195;-78
2023/10/10 06:08:06;;;;;;;71.10;42.83;;;16.20;99.90;;;;;;5135814;27;20199;-78
2023/10/10 06:10:35;;;;;;;71.82;42.17;;;16.20;99.90;;;;;;5131706;27;20211;-79
2023/10/10 06:13:06;;;;;;;69.97;42.08;;;16.30;99.90;;;;;;5130170;27;20227;-78
2023/10/10 06:15:35;;;;;;;69.45;42.92;;;16.30;99.90;;;;;;5131755;27;20195;-78
2023/10/10 06:18:11;;;;;;;71.80;44.22;;;16.20;99.90;;;;;;5133150;27;20203;-78
2023/10/10 06:20:44;;;;;;;73.45;43.15;;;16.20;99.90;;;;;;5133331;27;20283;-78
2023/10/10 06:23:14;;;;;;;75.90;44.58;;;16.20;99.90;;;;;;5157524;27;20211;-80
2023/10/10 06:25:44;;;;;;;70.47;43.15;;;16.20;99.90;;;;;;5134721;27;20195;-80
2023/10/10 06:28:22;;;;;;;73.40;43.67;;;16.40;99.90;;;;;;5140743;27;20211;-80
2023/10/10 06:30:53;;;;;;;70.25;41.80;;;16.40;99.90;;;;;;5138364;27;20671;-81
2023/10/10 06:33:27;;;;;;;60.20;43.42;;;16.40;99.90;;;;;;5144739;27;20208;-81
2023/10/10 06:36:25;;;;;;;69.75;42.92;;;16.30;99.90;;;;;;5128296;27;20194;-81
2023/10/10 06:39:18;;;;;;;69.60;46.17;;;16.30;99.90;;;;;;5132382;27;20568;-79
2023/10/10 06:41:54;;;;;;;68.38;43.88;;;16.30;99.90;;;;;;5136782;27;20191;-80
2023/10/10 06:44:33;;;;;;;67.05;43.28;;;16.30;99.90;;;;;;5156277;27;20221;-79
2023/10/10 06:47:08;;;;;;;68.00;44.65;;;16.30;99.90;;;;;;5145548;27;20179;-79
2023/10/10 06:49:53;;;;;;;65.70;44.10;;;16.40;99.90;;;;;;5133124;27;20195;-80
2023/10/10 06:52:23;;;;;;;59.58;38.65;;;16.40;99.90;;;;;;5132647;27;20207;-81
2023/10/10 06:54:55;;;;;;;70.38;44.80;;;16.50;99.90;;;;;;5130867;27;20218;-82
2023/10/10 06:57:40;;;;;;;70.15;43.70;;;16.50;99.90;;;;;;5137461;27;20199;-82
2023/10/10 07:00:20;;;;;;;58.83;42.70;;;16.70;99.90;;;;;;5133542;27;20200;-80
2023/10/10 07:02:49;;;;;;;58.78;33.00;;;16.90;99.90;;;;;;5131025;27;20186;-81
2023/10/10 07:05:19;;;;;;;58.17;42.92;;;17.00;99.90;;;;;;5156279;27;20202;-81
2023/10/10 07:07:52;;;;;;;52.72;36.83;;;16.70;99.90;;;;;;5131063;27;20199;-81
2023/10/10 07:10:26;;;;;;;66.13;43.47;;;16.80;99.90;;;;;;5132368;27;20192;-80
2023/10/10 07:12:58;;;;;;;59.47;43.40;;;16.70;99.90;;;;;;5131695;27;20217;-80
2023/10/10 07:15:25;;;;;;;58.17;41.95;;;16.70;99.90;;;;;;5134171;27;20200;-80
2023/10/10 07:18:08;;;;;;;63.38;43.42;;;16.70;99.90;;;;;;5135982;27;20203;-80
2023/10/10 07:23:22;;;;;;;59.28;41.15;;;16.70;99.90;;;;;;5159777;27;20211;-80
2023/10/10 07:25:59;;;;;;;61.00;40.38;;;16.70;99.90;;;;;;5137923;27;20569;-79
2023/10/10 07:28:29;;;;;;;53.85;38.97;;;16.80;99.90;;;;;;5129076;27;20195;-81
2023/10/10 07:30:56;;;;;;;59.00;39.97;;;16.80;99.90;;;;;;5134673;27;20199;-79
2023/10/10 07:33:29;;;;;;;54.85;36.95;;;16.80;99.90;;;;;;5123176;27;20227;-80
2023/10/10 07:35:57;;;;;;;56.90;37.60;;;16.90;99.90;;;;;;5132089;27;20582;-78
2023/10/10 07:38:27;;;;;;;55.40;37.15;;;16.90;99.90;;;;;;5136429;27;20315;-78
2023/10/10 07:40:55;;;;;;;50.33;37.22;;;17.00;99.90;;;;;;5158352;27;20194;-79
2023/10/10 07:43:26;;;;;;;48.03;36.28;;;17.10;99.90;;;;;;5158930;27;20214;-78
2023/10/10 07:45:55;;;;;;;47.83;34.15;;;17.10;99.90;;;;;;5140255;27;20203;-79
2023/10/10 07:48:44;;;;;;;49.22;34.38;;;17.20;99.90;;;;;;5132974;27;20718;-79
2023/10/10 07:51:16;;;;;;;44.05;31.67;;;17.30;99.90;;;;;;5124968;27;20191;-80
2023/10/10 07:53:44;;;;;;;43.85;32.25;;;17.40;99.90;;;;;;5143414;27;20222;-79
2023/10/10 07:56:12;;;;;;;42.97;28.73;;;17.40;99.90;;;;;;5147493;27;20202;-79
2023/10/10 07:58:49;;;;;;;44.38;29.83;;;17.60;99.90;;;;;;5132409;27;20557;-80
2023/10/10 08:01:18;;;;;;;35.30;25.70;;;17.80;99.90;;;;;;5133722;27;20195;-80
2023/10/10 08:03:46;;;;;;;32.88;25.33;;;17.80;99.90;;;;;;5130699;27;20304;-80
2023/10/10 08:06:17;;;;;;;33.67;25.42;;;17.80;99.90;;;;;;5138807;27;20199;-79
2023/10/10 08:08:48;;;;;;;31.55;24.65;;;18.00;99.90;;;;;;5155788;27;20195;-78
2023/10/10 08:11:35;;;;;;;32.65;22.38;;;18.00;99.90;;;;;;5163646;27;20194;-78
2023/10/10 08:14:06;;;;;;;31.55;21.63;;;18.00;99.90;;;;;;5143226;27;20225;-78
2023/10/10 08:16:37;;;;;;;26.13;19.20;;;18.00;99.90;;;;;;5140006;27;20210;-78
2023/10/10 08:19:08;;;;;;;26.00;19.52;;;18.10;99.90;;;;;;5142839;27;20210;-78
2023/10/10 08:21:38;;;;;;;24.35;18.17;;;18.20;99.90;;;;;;5142006;27;20202;-78
2023/10/10 08:24:07;;;;;;;25.10;17.50;;;18.20;99.90;;;;;;5140450;27;20215;-78
2023/10/10 08:26:41;;;;;;;27.95;18.15;;;18.20;99.90;;;;;;5151669;27;20195;-78
2023/10/10 08:29:09;;;;;;;25.17;17.00;;;18.30;99.90;;;;;;5157799;27;20203;-80
2023/10/10 08:31:42;;;;;;;22.70;15.30;;;18.20;99.90;;;;;;5127542;27;20202;-80
2023/10/10 08:34:09;;;;;;;22.73;15.18;;;18.30;99.90;;;;;;5140372;27;20222;-82
2023/10/10 08:36:38;;;;;;;20.38;14.68;;;18.30;99.90;;;;;;5129974;27;20203;-79
2023/10/10 08:39:24;;;;;;;22.20;15.85;;;18.40;99.90;;;;;;5161816;27;20191;-77
2023/10/10 08:41:53;;;;;;;19.85;13.68;;;18.50;99.90;;;;;;5161831;27;20202;-77
2023/10/10 08:44:23;;;;;;;20.85;14.40;;;18.50;99.90;;;;;;5136856;27;20222;-77
2023/10/10 08:46:58;;;;;;;21.58;15.27;;;18.50;99.90;;;;;;5129891;27;20202;-77
2023/10/10 08:49:28;;;;;;;20.20;14.32;;;18.60;99.90;;;;;;5129078;27;20191;-77
2023/10/10 08:52:00;;;;;;;19.70;13.48;;;18.70;99.90;;;;;;5125427;27;20668;-78
2023/10/10 08:54:30;;;;;;;22.70;16.70;;;18.70;99.90;;;;;;5148694;27;20693;-79
2023/10/10 08:57:03;;;;;;;24.05;17.88;;;18.80;99.90;;;;;;5150630;27;20187;-77
2023/10/10 08:59:35;;;;;;;28.58;17.88;;;18.80;99.90;;;;;;5148837;27;20187;-78
2023/10/10 09:02:15;;;;;;;22.65;16.65;;;18.90;99.90;;;;;;5132376;27;20207;-78
2023/10/10 09:04:43;;;;;;;30.92;20.30;;;19.00;99.90;;;;;;5155417;27;20213;-78
2023/10/10 09:07:20;;;;;;;26.10;20.77;;;19.00;99.90;;;;;;5136338;27;20195;-78
2023/10/10 09:09:54;;;;;;;24.02;16.92;;;19.10;99.90;;;;;;5151012;27;20190;-78
2023/10/10 09:12:56;;;;;;;17.95;13.23;;;19.10;99.90;;;;;;5135790;27;20551;-77
2023/10/10 09:15:24;;;;;;;15.13;10.98;;;19.10;99.90;;;;;;5134045;27;20194;-77
2023/10/10 09:17:55;;;;;;;16.17;10.77;;;19.20;99.90;;;;;;5147820;27;20544;-78
2023/10/10 09:20:28;;;;;;;15.20;9.82;;;19.30;99.90;;;;;;5125535;27;20206;-77
2023/10/10 09:23:21;;;;;;;12.35;8.25;;;19.50;99.90;;;;;;5155306;27;20703;-77
2023/10/10 09:26:12;;;;;;;10.60;7.53;;;19.40;99.90;;;;;;5125801;27;20562;-76
2023/10/10 09:28:49;;;;;;;11.45;7.45;;;19.50;99.90;;;;;;5124934;27;20191;-76
2023/10/10 09:31:45;;;;;;;8.57;6.93;;;19.50;99.90;;;;;;5132415;27;20187;-77
2023/10/10 09:34:22;;;;;;;12.40;7.20;;;19.60;99.90;;;;;;5125124;27;20211;-77
2023/10/10 09:36:51;;;;;;;11.02;7.80;;;19.70;99.90;;;;;;5127040;27;20206;-77
2023/10/10 09:39:35;;;;;;;10.90;7.53;;;19.70;99.90;;;;;;5130676;27;20198;-76
2023/10/10 09:42:44;;;;;;;10.35;6.50;;;19.80;99.90;;;;;;5134825;27;20202;-77
2023/10/10 09:45:18;;;;;;;7.95;6.35;;;19.70;99.90;;;;;;5118857;27;20201;-76
2023/10/10 09:47:56;;;;;;;10.50;6.68;;;19.80;99.90;;;;;;5149115;27;20194;-77
2023/10/10 09:50:35;;;;;;;12.30;7.00;;;19.90;99.90;;;;;;5146576;27;20199;-76
2023/10/10 09:53:06;;;;;;;10.85;7.60;;;19.90;99.90;;;;;;5142474;27;20217;-76
2023/10/10 09:55:39;;;;;;;11.23;7.47;;;19.90;99.90;;;;;;5147829;27;20187;-77
2023/10/10 10:00:53;;;;;;;10.27;5.47;;;20.20;99.90;;;;;;5121111;27;20195;-77
2023/10/10 10:03:40;;;;;;;9.48;5.57;;;20.10;99.90;;;;;;5126362;27;20215;-76
2023/10/10 10:06:34;;;;;;;7.47;4.93;;;20.10;99.90;;;;;;5133184;27;20195;-77
2023/10/10 10:13:19;;;;;;;7.18;5.47;;;20.20;99.90;;;;;;5159310;27;20170;-77
2023/10/10 10:16:08;;;;;;;8.52;5.43;;;20.20;99.90;;;;;;5125453;27;20206;-77
2023/10/10 10:18:45;;;;;;;6.55;5.20;;;20.10;99.90;;;;;;5129700;27;20198;-77
2023/10/10 10:21:18;;;;;;;7.95;5.07;;;20.10;99.90;;;;;;5128666;27;20205;-77
2023/10/10 10:23:56;;;;;;;11.30;5.60;;;20.20;99.90;;;;;;5126584;27;20207;-77
2023/10/10 10:26:41;;;;;;;9.77;5.22;;;20.30;99.90;;;;;;5125226;27;20583;-76
2023/10/10 10:29:29;;;;;;;6.88;5.60;;;20.40;99.90;;;;;;5135462;27;20205;-77
2023/10/10 10:32:01;;;;;;;8.43;5.22;;;20.30;99.90;;;;;;5147085;27;20203;-77
2023/10/10 10:34:35;;;;;;;9.45;5.68;;;20.40;99.90;;;;;;5133797;27;20214;-77
2023/10/10 10:37:12;;;;;;;9.40;5.20;;;20.40;99.90;;;;;;5132682;27;20569;-77
2023/10/10 10:40:21;;;;;;;9.65;7.15;;;20.40;99.90;;;;;;5156114;27;20252;-78
2023/10/10 10:42:34;;;;;;;12.65;7.50;;;20.40;99.90;;;;;;5134137;27;20206;-78
2023/10/10 10:45:25;;;;;;;8.52;6.00;;;20.50;99.90;;;;;;5146370;27;20183;-78
2023/10/10 10:47:59;;;;;;;11.43;7.30;;;20.60;99.90;;;;;;5128209;27;20199;-78
2023/10/10 10:50:45;;;;;;;8.15;5.90;;;20.60;99.90;;;;;;5144382;27;20217;-78
2023/10/10 10:53:31;;;;;;;7.80;5.38;;;20.60;99.90;;;;;;5120951;27;20222;-78
2023/10/10 11:01:55;;;;;;;8.77;5.38;;;20.90;99.90;;;;;;5122516;27;20543;-78
2023/10/10 11:04:42;;;;;;;10.98;5.68;;;21.10;99.90;;;;;;5104107;28;20220;-78
2023/10/10 11:07:16;;;;;;;10.70;5.80;;;21.10;99.90;;;;;;5105923;28;20188;-78
2023/10/10 11:09:53;;;;;;;6.93;5.18;;;21.10;99.90;;;;;;5104136;28;20200;-78
2023/10/10 11:12:31;;;;;;;10.52;5.68;;;21.10;99.90;;;;;;5108397;28;20200;-78
2023/10/10 11:15:04;;;;;;;8.55;5.72;;;21.20;99.90;;;;;;5099571;28;20276;-78
2023/10/10 11:17:38;;;;;;;7.70;4.55;;;21.40;99.90;;;;;;5107536;28;20196;-78
2023/10/10 11:20:29;;;;;;;7.82;5.35;;;21.50;99.90;;;;;;5111022;28;20211;-78
2023/10/10 11:23:10;;;;;;;6.47;4.57;;;21.60;99.90;;;;;;5094880;28;20220;-78
2023/10/10 11:25:46;;;;;;;6.95;5.07;;;21.60;99.90;;;;;;5099222;28;20216;-78
2023/10/10 11:28:23;;;;;;;6.85;5.32;;;21.80;99.50;;;;;;5108402;28;20692;-78
2023/10/10 11:30:52;;;;;;;6.53;4.85;;;21.80;99.40;;;;;;5113577;28;20555;-78
2023/10/10 11:33:47;;;;;;;7.50;4.53;;;22.00;98.90;;;;;;5111428;28;20220;-78
2023/10/10 11:36:29;;;;;;;8.88;5.18;;;22.20;99.00;;;;;;5104981;28;20197;-78
2023/10/10 11:39:15;;;;;;;7.40;4.85;;;22.50;98.00;;;;;;5104407;28;20219;-78
2023/10/10 11:41:45;;;;;;;8.07;5.05;;;22.50;97.90;;;;;;5108202;28;20220;-78
2023/10/10 11:44:18;;;;;;;8.75;5.25;;;22.40;97.40;;;;;;5110289;28;20685;-78
2023/10/10 11:46:49;;;;;;;6.75;4.95;;;22.40;96.70;;;;;;5107486;28;20209;-79
2023/10/10 11:49:18;;;;;;;7.65;4.95;;;22.40;95.80;;;;;;5109679;28;20192;-79
2023/10/10 11:51:46;;;;;;;8.40;4.78;;;22.60;95.10;;;;;;5105407;28;20196;-79
2023/10/10 11:54:14;;;;;;;11.32;5.25;;;22.80;95.50;;;;;;5109248;28;20217;-78
2023/10/10 11:56:41;;;;;;;6.38;4.65;;;22.90;95.00;;;;;;5109765;28;20208;-78
2023/10/10 11:59:10;;;;;;;8.50;5.22;;;23.10;95.50;;;;;;5109652;28;20193;-78
2023/10/10 12:01:51;;;;;;;7.20;5.00;;;23.30;94.30;;;;;;5106988;28;20224;-78
2023/10/10 12:04:31;;;;;;;8.07;4.78;;;23.30;95.10;;;;;;5097632;28;20220;-78
2023/10/10 12:07:00;;;;;;;6.78;4.80;;;23.30;92.70;;;;;;5096318;28;20191;-78
2023/10/10 12:09:29;;;;;;;8.88;4.85;;;23.40;92.80;;;;;;5118342;28;20200;-78
2023/10/10 12:12:01;;;;;;;7.88;4.40;;;23.40;93.40;;;;;;5100908;28;20189;-78
2023/10/10 12:14:30;;;;;;;6.97;4.68;;;23.40;92.30;;;;;;5092627;28;20217;-78
2023/10/10 12:16:59;;;;;;;8.27;5.03;;;23.70;92.70;;;;;;5094485;28;20271;-78
2023/10/10 12:19:36;;;;;;;7.45;4.57;;;23.90;92.20;;;;;;5094940;28;20196;-78
2023/10/10 12:22:07;;;;;;;7.38;4.40;;;24.00;92.80;;;;;;5087934;28;20216;-78
2023/10/10 12:24:36;;;;;;;8.73;4.70;;;24.10;91.30;;;;;;5092717;28;20217;-78
2023/10/10 12:27:07;;;;;;;9.82;5.05;;;23.70;91.40;;;;;;5089788;28;20204;-78
2023/10/10 12:29:39;;;;;;;7.93;4.68;;;24.00;91.80;;;;;;5099769;28;20209;-78
2023/10/10 12:32:15;;;;;;;9.10;4.88;;;24.30;91.80;;;;;;5090371;28;20204;-78
2023/10/10 12:34:45;;;;;;;8.75;5.13;;;24.00;90.80;;;;;;5094839;28;20216;-78
2023/10/10 12:37:15;;;;;;;7.18;4.78;;;24.20;91.10;;;;;;5094530;28;20193;-78
2023/10/10 12:39:43;;;;;;;6.53;4.70;;;24.60;91.40;;;;;;5093199;28;20201;-78
2023/10/10 12:42:10;;;;;;;6.93;5.03;;;24.50;90.70;;;;;;5090743;28;20209;-78
2023/10/10 12:44:37;;;;;;;7.65;4.35;;;24.40;90.60;;;;;;5093337;28;20212;-78
2023/10/10 12:47:07;;;;;;;8.80;5.45;;;24.50;91.00;;;;;;5092991;28;20208;-78
2023/10/10 12:49:44;;;;;;;9.02;4.97;;;25.10;90.90;;;;;;5096988;28;20197;-78
2023/10/10 12:52:12;;;;;;;9.48;4.40;;;25.40;90.50;;;;;;5098172;28;20189;-78
2023/10/10 12:54:41;;;;;;;9.27;5.53;;;25.70;89.80;;;;;;5086701;28;20248;-78
2023/10/10 12:57:14;;;;;;;7.43;4.75;;;25.90;89.60;;;;;;5094710;28;20212;-78
2023/10/10 12:59:46;;;;;;;7.82;4.93;;;25.40;88.50;;;;;;5094051;28;20201;-78
2023/10/10 13:02:15;;;;;;;7.65;5.30;;;25.10;87.50;;;;;;5093262;28;20217;-78
2023/10/10 13:04:46;;;;;;;7.93;4.80;;;25.20;89.40;;;;;;5094151;28;20221;-78
2023/10/10 13:07:16;;;;;;;12.05;4.90;;;25.10;88.70;;;;;;5091327;28;20212;-78
2023/10/10 13:09:46;;;;;;;7.57;4.70;;;24.80;89.10;;;;;;5094337;28;20216;-78
2023/10/10 13:12:27;;;;;;;8.05;5.30;;;25.10;89.10;;;;;;5092599;28;20181;-80
2023/10/10 13:15:17;;;;;;;8.35;4.60;;;25.00;89.20;;;;;;5095444;28;20678;-81
2023/10/10 13:17:53;;;;;;;8.90;4.93;;;25.30;89.90;;;;;;5100519;28;20196;-81
2023/10/10 13:20:22;;;;;;;8.35;4.82;;;25.50;87.90;;;;;;5099999;28;20192;-81
2023/10/10 13:22:51;;;;;;;6.75;4.43;;;25.80;87.90;;;;;;5098991;28;20216;-81
2023/10/10 13:25:20;;;;;;;8.32;4.65;;;26.80;88.30;;;;;;5097308;28;20208;-81
2023/10/10 13:27:49;;;;;;;7.93;4.80;;;26.20;84.50;;;;;;5100058;28;20207;-81
2023/10/10 13:30:17;;;;;;;8.48;5.15;;;26.20;87.20;;;;;;5099219;28;20211;-81
2023/10/10 13:32:45;;;;;;;9.52;4.93;;;26.30;87.90;;;;;;5099069;28;20209;-80
2023/10/10 13:35:12;;;;;;;10.20;5.30;;;26.30;85.70;;;;;;5090329;28;20200;-80
2023/10/10 13:37:43;;;;;;;8.15;4.85;;;26.10;87.00;;;;;;5094586;28;20674;-78
2023/10/10 13:40:22;;;;;;;9.85;6.00;;;26.10;84.70;;;;;;5088354;28;20193;-78
2023/10/10 13:42:50;;;;;;;10.32;5.07;;;26.60;85.80;;;;;;5090711;28;20205;-78
2023/10/10 13:45:22;;;;;;;9.90;5.75;;;26.70;84.80;;;;;;5089744;28;20216;-78
2023/10/10 13:48:31;;;;;;;23.80;6.32;;;25.70;85.20;;;;;;5083775;28;20204;-78
2023/10/10 13:54:45;;;;;;;8.35;4.88;;;25.60;86.40;;;;;;5091690;28;20204;-78
2023/10/10 13:57:14;;;;;;;8.90;5.32;;;26.30;85.30;;;;;;5091424;28;20200;-78
2023/10/10 14:00:19;;;;;;;6.85;4.93;;;26.40;85.20;;;;;;5091508;28;20201;-78
2023/10/10 14:02:46;;;;;;;8.10;4.30;;;25.90;85.10;;;;;;5078005;28;20221;-78
2023/10/10 14:05:19;;;;;;;8.05;5.00;;;26.20;85.00;;;;;;5089505;28;20193;-78
2023/10/10 14:07:46;;;;;;;8.10;4.68;;;25.80;84.40;;;;;;5088508;28;20196;-79
2023/10/10 14:10:18;;;;;;;6.88;4.82;;;25.70;85.10;;;;;;5091074;28;20189;-78
2023/10/10 14:12:50;;;;;;;10.80;5.22;;;25.60;84.50;;;;;;5082393;28;20197;-79
2023/10/10 14:15:18;;;;;;;8.27;4.90;;;25.60;86.40;;;;;;5082872;28;20553;-78
2023/10/10 14:17:47;;;;;;;13.07;5.82;;;26.10;85.60;;;;;;5088560;28;20197;-78
2023/10/10 14:20:21;;;;;;;8.70;5.03;;;25.90;86.80;;;;;;5090890;28;20185;-79
2023/10/10 14:22:50;;;;;;;7.75;4.70;;;26.00;84.80;;;;;;5092991;28;20225;-79
2023/10/10 14:25:18;;;;;;;7.88;5.25;;;25.80;86.30;;;;;;5090904;28;20197;-79
2023/10/10 14:27:46;;;;;;;8.77;4.82;;;25.90;84.90;;;;;;5087288;28;20288;-78
2023/10/10 14:30:36;;;;;;;8.30;4.90;;;25.50;85.90;;;;;;5076212;28;20196;-78
2023/10/10 14:33:05;;;;;;;10.35;4.90;;;25.40;86.50;;;;;;5087027;28;20220;-79
2023/10/10 14:35:32;;;;;;;7.05;4.70;;;25.10;87.50;;;;;;5089928;28;20203;-78
2023/10/10 14:38:00;;;;;;;9.07;5.10;;;24.90;87.60;;;;;;5076293;28;20194;-78
2023/10/10 14:40:30;;;;;;;9.13;4.70;;;24.90;87.90;;;;;;5090355;28;20224;-77
2023/10/10 14:43:05;;;;;;;9.32;5.00;;;24.70;87.60;;;;;;5090912;28;20213;-78
2023/10/10 14:45:34;;;;;;;10.95;4.95;;;24.70;88.30;;;;;;5090148;28;20197;-78
2023/10/10 14:48:05;;;;;;;9.93;5.13;;;24.50;88.80;;;;;;5088213;28;20201;-78
2023/10/10 14:50:38;;;;;;;9.00;4.40;;;24.40;89.90;;;;;;5085214;28;20205;-77
2023/10/10 14:53:08;;;;;;;7.65;4.70;;;24.40;90.60;;;;;;5085610;28;20224;-78
2023/10/10 14:55:56;;;;;;;8.45;4.72;;;24.40;90.50;;;;;;5086288;28;20216;-78
2023/10/10 14:58:42;;;;;;;8.82;4.90;;;24.40;91.00;;;;;;5083254;28;20263;-77
2023/10/10 15:01:09;;;;;;;8.25;5.15;;;24.40;91.10;;;;;;5082757;28;20205;-77
2023/10/10 15:03:41;;;;;;;9.15;5.13;;;24.30;91.00;;;;;;5089327;28;20240;-78
2023/10/10 15:06:28;;;;;;;9.23;5.30;;;24.20;91.30;;;;;;5085720;28;20539;-77
2023/10/10 15:09:05;;;;;;;8.55;4.90;;;24.20;91.70;;;;;;5089245;28;20209;-77
2023/10/10 15:11:33;;;;;;;7.93;4.93;;;24.10;91.60;;;;;;5078861;28;20204;-77
2023/10/10 15:14:06;;;;;;;10.82;5.32;;;24.00;91.80;;;;;;5088611;28;20682;-78
2023/10/10 15:16:35;;;;;;;9.27;4.68;;;24.00;91.50;;;;;;5081275;28;20193;-77
2023/10/10 15:19:03;;;;;;;8.07;5.40;;;23.80;91.20;;;;;;5087691;28;20204;-77